Weather at Ellison Onizuka Kona International Airport at Keahole

Public forecast

Using degrees Fahrenheit for public forecast. Weather courtesy of forecast.io.

Current aviation weather report (METAR) for Ellison Onizuka Kona International Airport at Keahole

Report is more than 6 hours old.

2022/11/14 14:53 (retrieved 2 years ago)

PHKO 141453Z AUTO 05006KT 10SM CLR 24/17 A3000

Aviation forecast (TAF) for Ellison Onizuka Kona International Airport at Keahole

Forecast is more than 12 hours old.

2023/02/22 18:27 (retrieved 1 year ago)

TAF PHKO 221725Z 2218/2318 VRB06KT P6SM SCT050 FM222100 22011KT P6SM SCT030 BKN060 FM230600 VRB06KT P6SM SCT030 SCT060